Landers, California
Current Conditions -  °F | °C
As of 3:56 AM on Sunday 23 Nov 2014 (Local Time) from KNXP Reporting Station
Clear Clear  
Wind Chill: 58°   Ceiling: Unl
Heat Index: 58°   Visibility: 10mi
Dew Point: 34°   Wind: 25mph
Humidity: 41%   Direction: 340°NNW
Pressure: 30.16"   Gusts: 32mph
Location:  34.27°N, 116.39°W
Report Text: KNXP 231156Z AUTO 34022G28KT 10SM CLR 14/01 A3016 RMK AO2 PK WND 35028/1155 SLP964 T01440011 10183 20139 51037 $
Loading
Personal Weather Stations






























Interactive Weather Map New forecast layout! Learn more

10-Day Weather Forecast

Advertisements
Track Severe Weather on mobile